.
WxDataArchive / Data Records for 2010-06-17
2010-06-16 June 2010 2010-06-18

Data Records for Thursday, 17 June 2010

Time	Temp	Chill	HIndex	Humid	Dewpt	 Wind 	HiWind	WindDir	Rain 	Barom 
-----	----	-----	------	-----	-----	------	------	-------	-----	----- 
00:00	65.8	65.8	65.8	86	61.5	0	0	---	0.00	30.040 
00:05	65.6	65.6	65.6	86	61.3	0	0	---	0.00	30.040 
00:10	65.6	65.6	65.6	87	61.6	0	0	---	0.00	30.040 
00:15	65.5	65.5	65.5	87	61.5	0	0	---	0.00	30.038 
00:20	65.5	65.5	65.5	87	61.5	0	0	---	0.00	30.038 
00:25	65.3	65.3	65.3	88	61.6	0	0	---	0.00	30.038 
00:30	65.3	65.3	65.3	88	61.6	0	0	---	0.00	30.045 
00:35	65.3	65.3	65.3	88	61.6	0	0	---	0.00	30.045 
00:40	65.3	65.3	65.3	88	61.6	0	0	---	0.00	30.045 
00:45	65.3	65.3	65.3	88	61.6	0	0	---	0.00	30.044 
00:50	65.3	65.3	65.3	88	61.6	0	0	---	0.00	30.044 
00:55	65.3	65.3	65.3	89	62.0	0	0	---	0.00	30.044 
01:00	65.3	65.3	65.3	89	62.0	0	0	---	0.00	30.045 
01:05	65.3	65.3	65.3	89	62.0	0	0	---	0.00	30.045 
01:10	65.3	65.3	65.3	89	62.0	0	0	---	0.00	30.045 
01:15	65.3	65.3	65.3	89	62.0	0	0	---	0.00	30.041 
01:20	65.2	65.2	65.2	89	61.9	0	0	---	0.00	30.041 
01:25	65.2	65.2	65.2	89	61.9	0	0	---	0.00	30.041 
01:30	65.2	65.2	65.2	89	61.9	0	0	---	0.00	30.040 
01:35	65.3	65.3	65.3	90	62.3	0	0	---	0.00	30.040 
01:40	65.3	65.3	65.3	90	62.3	0	0	---	0.00	30.040 
01:45	65.3	65.3	65.3	90	62.3	0	0	---	0.00	30.035 
01:50	65.3	65.3	65.3	90	62.3	0	0	---	0.00	30.035 
01:55	65.3	65.3	65.3	90	62.3	0	0	---	0.00	30.035 
02:00	65.3	65.3	65.3	90	62.3	0	0	---	0.00	30.033 
02:05	65.3	65.3	65.3	90	62.3	0	0	---	0.00	30.033 
02:10	65.5	65.5	65.5	90	62.5	0	0	---	0.00	30.033 
02:15	65.5	65.5	65.5	91	62.8	0	0	---	0.00	30.030 
02:20	65.6	65.6	65.6	91	62.9	0	0	---	0.00	30.030 
02:25	65.6	65.6	65.6	91	62.9	0	0	---	0.00	30.030 
02:30	65.5	65.5	65.5	91	62.8	0	0	---	0.00	30.030 
02:35	65.5	65.5	65.5	90	62.5	0	0	---	0.00	30.030 
02:40	65.3	65.3	65.3	90	62.3	0	0	---	0.00	30.030 
02:45	65.2	65.2	65.2	90	62.2	0	0	---	0.00	30.033 
02:50	65.2	65.2	65.2	91	62.5	0	0	---	0.00	30.033 
02:55	65.0	65.0	65.0	90	62.0	0	0	---	0.00	30.033 
03:00	65.0	65.0	65.0	90	62.0	0	0	---	0.00	30.036 
03:05	64.8	64.8	64.8	90	61.8	0	0	---	0.00	30.036 
03:10	64.8	64.8	64.8	90	61.8	0	0	---	0.00	30.036 
03:15	64.8	64.8	64.8	90	61.8	0	0	---	0.00	30.035 
03:20	64.8	64.8	64.8	90	61.8	0	0	---	0.00	30.035 
03:25	64.8	64.8	64.8	90	61.8	0	0	---	0.00	30.035 
03:30	64.8	64.8	64.8	90	61.8	0	0	---	0.00	30.033 
03:35	64.8	64.8	64.8	90	61.8	0	0	---	0.00	30.033 
03:40	64.8	64.8	64.8	90	61.8	0	0	---	0.00	30.033 
03:45	64.8	64.8	64.8	90	61.8	0	0	---	0.00	30.043 
03:50	64.7	64.7	64.7	90	61.7	0	0	---	0.00	30.043 
03:55	64.7	64.7	64.7	90	61.7	0	0	---	0.00	30.043 
04:00	64.7	64.7	64.7	90	61.7	0	0	---	0.00	30.042 
04:05	64.5	64.5	64.5	89	61.2	0	0	---	0.00	30.042 
04:10	64.5	64.5	64.5	90	61.5	0	0	---	0.00	30.042 
04:15	64.3	64.3	64.3	90	61.3	0	0	---	0.00	30.040 
04:20	64.3	64.3	64.3	90	61.3	0	0	---	0.00	30.040 
04:25	64.2	64.2	64.2	90	61.2	0	0	---	0.00	30.040 
04:30	64.0	64.0	64.0	90	61.0	0	0	---	0.00	30.045 
04:35	63.9	63.9	63.9	90	60.9	0	0	---	0.00	30.045 
04:40	63.7	63.7	63.7	90	60.7	0	0	---	0.00	30.045 
04:45	63.7	63.7	63.7	91	61.0	0	0	---	0.00	30.042 
04:50	63.7	63.7	63.7	91	61.0	0	0	---	0.00	30.042 
04:55	63.5	63.5	63.5	91	60.8	0	0	---	0.00	30.042 
05:00	63.5	63.5	63.5	91	60.8	0	0	---	0.00	30.044 
05:05	63.4	63.4	63.4	91	60.7	0	0	---	0.00	30.044 
05:10	63.4	63.4	63.4	91	60.7	0	0	---	0.00	30.044 
05:15	63.4	63.4	63.4	92	61.0	0	0	---	0.00	30.047 
05:20	63.4	63.4	63.4	92	61.0	0	0	---	0.00	30.047 
05:25	63.4	63.4	63.4	92	61.0	0	0	---	0.00	30.047 
05:30	63.2	63.2	63.2	92	60.8	0	0	---	0.00	30.052 
05:35	63.2	63.2	63.2	92	60.8	0	0	---	0.00	30.052 
05:40	63.1	63.1	63.1	92	60.7	0	0	---	0.00	30.052 
05:45	62.9	62.9	62.9	92	60.5	0	0	---	0.00	30.056 
05:50	62.9	62.9	62.9	92	60.5	0	0	---	0.00	30.056 
05:55	62.7	62.7	62.7	92	60.3	0	0	---	0.00	30.056 
06:00	62.6	62.6	62.6	92	60.2	0	0	---	0.00	30.060 
06:05	62.4	62.4	62.4	92	60.0	0	0	---	0.00	30.060 
06:10	62.3	62.3	62.3	92	59.9	0	0	---	0.00	30.060 
06:15	62.1	62.1	62.1	92	59.7	0	0	---	0.00	30.065 
06:20	62.0	62.0	62.0	92	59.6	0	0	---	0.00	30.065 
06:25	62.0	62.0	62.0	93	59.9	0	0	---	0.00	30.065 
06:30	61.8	61.8	61.8	93	59.8	0	0	---	0.00	30.068 
06:35	61.8	61.8	61.8	93	59.8	0	0	---	0.00	30.068 
06:40	61.6	61.6	61.6	93	59.6	0	0	---	0.00	30.068 
06:45	61.6	61.6	61.6	93	59.6	0	0	---	0.00	30.071 
06:50	61.8	61.8	61.8	93	59.8	0	0	---	0.00	30.071 
06:55	61.8	61.8	61.8	93	59.8	0	0	---	0.00	30.071 
07:00	62.0	62.0	62.0	94	60.2	0	0	---	0.00	30.077 
07:05	62.1	62.1	62.1	94	60.3	0	0	---	0.00	30.077 
07:10	62.4	62.4	62.4	94	60.6	0	0	---	0.00	30.077 
07:15	62.6	62.6	62.6	94	60.8	0	0	---	0.00	30.085 
07:20	62.9	62.9	62.9	94	61.1	0	1	292	0.00	30.085 
07:25	63.4	63.4	63.4	94	61.6	0	1	292	0.00	30.085 
07:30	64.0	64.0	64.0	93	61.9	0	3	292	0.00	30.090 
07:35	64.7	64.7	64.7	91	62.0	0	2	292	0.00	30.090 
07:40	65.3	65.3	65.3	90	62.3	0	2	292	0.00	30.090 
07:45	66.0	66.0	66.0	88	62.3	0	2	292	0.00	30.091 
07:50	66.4	66.4	66.4	85	61.7	0	1	292	0.00	30.091 
07:55	66.9	66.9	66.9	84	61.9	0	2	315	0.00	30.091 
08:00	67.3	67.3	67.3	82	61.6	1	4	90	0.00	30.091 
08:05	67.8	67.8	67.8	82	62.1	0	2	112	0.00	30.091 
08:10	68.4	68.4	68.4	80	62.0	0	2	112	0.00	30.091 
08:15	68.9	68.9	68.9	79	62.1	0	0	---	0.00	30.094 
08:20	69.1	69.1	69.1	78	61.9	0	0	---	0.00	30.094 
08:25	69.6	69.6	69.6	78	62.4	0	0	---	0.00	30.094 
08:30	70.1	70.1	70.1	77	62.5	0	3	112	0.00	30.095 
08:35	70.4	70.4	70.4	76	62.5	1	3	112	0.00	30.095 
08:40	70.4	70.4	70.4	76	62.5	1	3	112	0.00	30.095 
08:45	70.4	70.4	70.4	74	61.7	0	2	112	0.00	30.095 
08:50	70.9	70.9	70.9	74	62.2	0	2	112	0.00	30.095 
08:55	71.3	71.3	71.3	75	63.0	0	3	112	0.00	30.095 
09:00	71.8	71.8	71.8	74	63.1	0	1	112	0.00	30.094 
09:05	72.0	72.0	72.0	73	62.9	0	1	112	0.00	30.094 
09:10	72.3	72.3	72.3	72	62.8	1	4	112	0.00	30.094 
09:15	72.7	72.7	72.7	72	63.1	0	1	112	0.00	30.094 
09:20	73.0	73.0	73.0	72	63.4	0	3	112	0.00	30.094 
09:25	73.0	73.0	73.0	71	63.0	0	2	112	0.00	30.094 
09:30	73.0	73.0	73.0	71	63.0	0	3	112	0.00	30.092 
09:35	72.8	72.8	72.8	71	62.8	0	2	112	0.00	30.092 
09:40	73.0	73.0	73.0	70	62.6	0	2	112	0.00	30.092 
09:45	73.2	73.2	73.2	73	64.0	0	4	112	0.00	30.092 
09:50	73.5	73.5	73.5	70	63.1	1	3	112	0.00	30.092 
09:55	74.0	74.0	74.0	73	64.8	0	3	112	0.00	30.092 
10:00	74.4	74.4	74.4	68	63.1	0	2	112	0.00	30.090 
10:05	74.9	74.9	74.9	71	64.8	1	3	112	0.00	30.090 
10:10	74.9	74.9	74.9	68	63.6	1	4	90	0.00	30.090 
10:15	74.2	74.2	74.2	68	62.9	1	4	112	0.00	30.087 
10:20	74.0	74.0	74.0	69	63.2	2	5	112	0.00	30.087 
10:25	73.9	73.9	73.9	69	63.1	2	6	112	0.00	30.087 
10:30	74.0	74.0	74.0	71	64.0	2	5	112	0.00	30.085 
10:35	74.0	74.0	74.0	69	63.2	2	5	90	0.00	30.085 
10:40	73.9	73.9	73.9	69	63.1	3	7	112	0.00	30.085 
10:45	74.2	74.2	74.2	69	63.4	0	4	90	0.00	30.086 
10:50	74.6	74.6	74.6	67	62.9	1	7	90	0.00	30.086 
10:55	74.9	74.9	74.9	67	63.2	1	5	90	0.00	30.086 
11:00	75.3	75.3	77.2	67	63.6	1	5	112	0.00	30.082 
11:05	75.4	75.4	77.3	67	63.7	1	4	112	0.00	30.082 
11:10	75.6	75.6	77.4	67	63.9	1	3	135	0.00	30.082 
11:15	75.4	75.4	77.4	65	62.8	1	4	135	0.00	30.091 
11:20	75.6	75.6	77.5	65	63.0	2	5	90	0.00	30.091 
11:25	75.6	75.6	77.5	65	63.0	2	6	90	0.00	30.091 
11:30	75.8	75.8	77.7	64	62.7	1	6	90	0.00	30.084 
11:35	75.8	75.8	77.7	65	63.2	2	4	112	0.00	30.084 
11:40	75.8	75.8	77.7	66	63.6	2	5	90	0.00	30.084 
11:45	75.8	75.8	77.7	64	62.7	2	5	90	0.00	30.088 
11:50	75.8	75.8	77.7	66	63.6	1	3	90	0.00	30.088 
11:55	76.5	76.5	78.3	65	63.8	1	3	90	0.00	30.088 
12:00	76.8	76.8	78.6	63	63.2	1	5	90	0.00	30.089 
12:05	76.8	76.8	78.6	65	64.1	1	5	90	0.00	30.089 
12:10	77.0	77.0	78.8	60	62.0	1	3	90	0.00	30.089 
12:15	77.0	77.0	78.8	63	63.4	1	3	90	0.00	30.092 
12:20	77.4	77.4	79.1	61	62.9	1	4	90	0.00	30.092 
12:25	77.4	77.4	79.2	62	63.3	1	3	90	0.00	30.092 
12:30	76.7	76.7	78.5	62	62.7	1	3	90	0.00	30.093 
12:35	76.0	76.0	77.9	64	62.9	0	2	90	0.00	30.093 
12:40	76.0	76.0	77.9	64	62.9	0	3	90	0.00	30.093 
12:45	76.5	76.5	78.4	62	62.5	1	3	90	0.00	30.094 
12:50	77.2	77.2	79.0	62	63.2	1	4	112	0.00	30.094 
12:55	77.4	77.4	79.2	63	63.8	1	4	112	0.00	30.094 
13:00	76.8	76.8	78.6	61	62.3	0	1	112	0.00	30.096 
13:05	76.3	76.3	78.2	60	61.4	0	2	112	0.00	30.096 
13:10	76.3	76.3	78.2	63	62.8	1	4	112	0.00	30.096 
13:15	77.0	77.0	78.8	62	63.0	1	4	112	0.00	30.094 
13:20	77.6	77.6	79.4	62	63.5	1	3	112	0.00	30.094 
13:25	77.4	77.4	79.1	60	62.4	2	4	112	0.00	30.094 
13:30	77.2	77.2	79.0	62	63.2	1	4	112	0.00	30.095 
13:35	77.6	77.6	79.3	61	63.1	2	5	112	0.00	30.095 
13:40	77.9	77.9	79.6	62	63.8	1	5	112	0.00	30.095 
13:45	78.3	78.3	80.1	62	64.2	1	4	112	0.00	30.094 
13:50	78.5	78.5	80.0	58	62.5	2	4	112	0.00	30.094 
13:55	78.3	78.3	79.9	58	62.3	0	3	112	0.00	30.094 
14:00	78.3	78.3	79.8	56	61.3	2	5	112	0.00	30.091 
14:05	77.9	77.9	79.5	58	61.9	1	4	112	0.00	30.091 
14:10	78.1	78.1	79.7	58	62.1	0	2	135	0.00	30.091 
14:15	78.1	78.1	79.7	59	62.6	1	3	135	0.00	30.082 
14:20	77.7	77.7	79.4	59	62.2	0	1	135	0.00	30.082 
14:25	77.4	77.4	79.1	60	62.4	0	2	135	0.00	30.082 
14:30	77.0	77.0	78.8	59	61.6	0	1	135	0.00	30.088 
14:35	77.0	77.0	78.8	62	63.0	0	1	135	0.00	30.088 
14:40	77.0	77.0	78.8	60	62.0	0	1	135	0.00	30.088 
14:45	77.4	77.4	79.1	59	61.9	0	2	135	0.00	30.080 
14:50	78.1	78.1	79.6	56	61.1	0	2	135	0.00	30.080 
14:55	79.4	79.4	80.8	56	62.3	0	2	135	0.00	30.080 
15:00	79.9	79.9	81.4	57	63.3	1	2	248	0.00	30.074 
15:05	80.1	80.1	81.5	56	63.0	1	3	112	0.00	30.074 
15:10	79.6	79.6	81.0	56	62.5	0	0	---	0.00	30.074 
15:15	79.2	79.2	80.7	58	63.1	0	2	112	0.00	30.069 
15:20	79.4	79.4	80.8	56	62.3	1	4	112	0.00	30.069 
15:25	79.8	79.8	81.3	57	63.2	1	3	112	0.00	30.069 
15:30	80.1	80.1	81.6	57	63.5	1	3	112	0.00	30.060 
15:35	79.9	79.9	81.3	56	62.8	1	3	112	0.00	30.060 
15:40	80.3	80.3	81.9	58	64.2	1	3	112	0.00	30.060 
15:45	80.7	80.7	82.0	55	63.0	1	3	112	0.00	30.056 
15:50	80.7	80.7	82.0	55	63.0	0	2	112	0.00	30.056 
15:55	80.7	80.7	81.9	54	62.5	0	2	112	0.00	30.056 
16:00	80.3	80.3	81.7	56	63.1	1	4	112	0.00	30.057 
16:05	80.3	80.3	81.8	57	63.7	0	3	112	0.00	30.057 
16:10	79.9	79.9	81.2	55	62.3	0	1	112	0.00	30.057 
16:15	79.9	79.9	81.1	54	61.7	1	4	112	0.00	30.048 
16:20	80.1	80.1	81.7	58	64.0	0	2	112	0.00	30.048 
16:25	80.1	80.1	81.6	57	63.5	0	2	112	0.00	30.048 
16:30	80.3	80.3	81.9	58	64.2	0	1	112	0.00	30.049 
16:35	80.9	80.9	82.5	57	64.2	1	3	112	0.00	30.049 
16:40	81.1	81.1	82.6	56	63.9	1	4	112	0.00	30.049 
16:45	81.1	81.1	82.2	53	62.3	0	1	112	0.00	30.048 
16:50	80.9	80.9	82.1	54	62.7	0	1	315	0.00	30.048 
16:55	81.1	81.1	82.2	53	62.3	1	2	0	0.00	30.048 
17:00	81.4	81.4	82.8	55	63.7	0	2	0	0.00	30.046 
17:05	81.6	81.6	82.9	54	63.3	0	2	0	0.00	30.046 
17:10	82.0	82.0	83.1	52	62.6	0	2	0	0.00	30.046 
17:15	82.6	82.6	83.8	52	63.2	0	2	0	0.00	30.042 
17:20	82.6	82.6	83.4	50	62.0	1	2	315	0.00	30.042 
17:25	82.4	82.4	83.4	51	62.4	1	2	315	0.00	30.042 
17:30	82.4	82.4	83.5	52	63.0	0	2	0	0.00	30.045 
17:35	82.4	82.4	83.2	50	61.9	1	2	22	0.00	30.045 
17:40	82.4	82.4	83.9	54	64.1	1	4	112	0.00	30.045 
17:45	82.4	82.4	83.9	54	64.1	1	3	112	0.00	30.041 
17:50	82.0	82.0	83.1	52	62.6	1	5	90	0.00	30.041 
17:55	81.4	81.4	82.8	55	63.7	1	4	112	0.00	30.041 
18:00	80.9	80.9	82.3	55	63.2	1	3	112	0.00	30.032 
18:05	80.7	80.7	81.9	54	62.5	0	3	90	0.00	30.032 
18:10	80.5	80.5	81.7	54	62.3	1	3	90	0.00	30.032 
18:15	80.5	80.5	81.7	54	62.3	2	6	90	0.00	30.036 
18:20	80.3	80.3	81.5	54	62.1	1	3	90	0.00	30.036 
18:25	80.1	80.1	81.4	55	62.4	1	2	90	0.00	30.036 
18:30	79.9	79.9	81.1	54	61.7	0	1	90	0.00	30.033 
18:35	79.9	79.9	81.2	55	62.3	0	3	90	0.00	30.033 
18:40	79.9	79.9	81.2	55	62.3	0	2	90	0.00	30.033 
18:45	79.9	79.9	81.2	55	62.3	0	1	90	0.00	30.030 
18:50	79.8	79.8	81.0	54	61.7	0	2	90	0.00	30.030 
18:55	79.6	79.6	80.9	55	62.0	0	0	---	0.00	30.030 
19:00	79.6	79.6	80.9	55	62.0	0	1	90	0.00	30.026 
19:05	79.4	79.4	80.6	54	61.3	0	1	90	0.00	30.026 
19:10	79.6	79.6	80.9	55	62.0	0	2	90	0.00	30.026 
19:15	79.4	79.4	80.7	55	61.8	0	1	90	0.00	30.026 
19:20	79.2	79.2	80.4	54	61.1	0	2	90	0.00	30.026 
19:25	79.2	79.2	80.5	55	61.6	0	3	90	0.00	30.026 
19:30	79.2	79.2	80.6	56	62.1	1	3	90	0.00	30.028 
19:35	79.0	79.0	80.4	56	61.9	0	1	90	0.00	30.028 
19:40	79.0	79.0	80.3	55	61.4	1	4	112	0.00	30.028 
19:45	78.8	78.8	80.2	56	61.8	1	4	112	0.00	30.026 
19:50	78.8	78.8	80.2	56	61.8	1	3	112	0.00	30.026 
19:55	78.6	78.6	80.0	56	61.6	0	2	112	0.00	30.026 
20:00	78.6	78.6	80.0	56	61.6	0	2	112	0.00	30.026 
20:05	78.5	78.5	79.9	56	61.5	0	2	112	0.00	30.026 
20:10	78.5	78.5	79.9	56	61.5	0	3	112	0.00	30.026 
20:15	78.3	78.3	79.8	56	61.3	0	2	112	0.00	30.021 
20:20	78.3	78.3	79.8	56	61.3	0	2	112	0.00	30.021 
20:25	78.1	78.1	79.6	56	61.1	0	2	112	0.00	30.021 
20:30	78.1	78.1	79.6	56	61.1	1	3	112	0.00	30.015 
20:35	77.9	77.9	79.5	57	61.4	1	4	90	0.00	30.015 
20:40	77.7	77.7	79.3	57	61.2	1	2	90	0.00	30.015 
20:45	77.6	77.6	79.2	58	61.6	1	3	90	0.00	30.015 
20:50	77.2	77.2	78.9	60	62.2	0	1	90	0.00	30.015 
20:55	77.0	77.0	78.8	61	62.5	0	1	90	0.00	30.015 
21:00	76.7	76.7	78.5	61	62.2	0	1	90	0.00	30.021 
21:05	76.5	76.5	78.4	60	61.6	0	1	90	0.00	30.021 
21:10	76.3	76.3	78.2	61	61.8	0	1	90	0.00	30.021 
21:15	76.0	76.0	78.0	61	61.6	0	1	90	0.00	30.016 
21:20	75.8	75.8	77.8	62	61.8	0	1	90	0.00	30.016 
21:25	75.4	75.4	77.5	63	61.9	0	0	---	0.00	30.016 
21:30	75.1	75.1	77.3	63	61.6	0	1	90	0.00	30.017 
21:35	74.9	74.9	74.9	63	61.4	0	3	90	0.00	30.017 
21:40	74.9	74.9	74.9	63	61.4	0	1	90	0.00	30.017 
21:45	74.6	74.6	74.6	64	61.6	0	1	90	0.00	30.014 
21:50	74.6	74.6	74.6	65	62.0	0	1	90	0.00	30.014 
21:55	74.2	74.2	74.2	65	61.7	0	1	90	0.00	30.014 
22:00	74.0	74.0	74.0	65	61.5	0	1	90	0.00	30.019 
22:05	73.9	73.9	73.9	66	61.8	0	1	90	0.00	30.019 
22:10	73.7	73.7	73.7	66	61.6	0	1	90	0.00	30.019 
22:15	73.5	73.5	73.5	67	61.9	0	1	90	0.00	30.020 
22:20	73.3	73.3	73.3	68	62.1	0	0	---	0.00	30.020 
22:25	73.2	73.2	73.2	68	62.0	0	0	---	0.00	30.020 
22:30	72.8	72.8	72.8	69	62.0	0	0	---	0.00	30.024 
22:35	72.7	72.7	72.7	69	61.9	0	0	---	0.00	30.024 
22:40	72.5	72.5	72.5	70	62.1	0	0	---	0.00	30.024 
22:45	72.1	72.1	72.1	70	61.8	0	0	---	0.00	30.025 
22:50	72.0	72.0	72.0	71	62.1	0	0	---	0.00	30.025 
22:55	71.8	71.8	71.8	71	61.9	0	0	---	0.00	30.025 
23:00	71.5	71.5	71.5	72	62.0	0	0	---	0.00	30.028 
23:05	71.3	71.3	71.3	72	61.8	0	0	---	0.00	30.028 
23:10	70.9	70.9	70.9	73	61.8	0	0	---	0.00	30.028 
23:15	70.6	70.6	70.6	73	61.5	0	0	---	0.00	30.037 
23:20	70.3	70.3	70.3	75	62.0	0	0	---	0.00	30.037 
23:25	70.1	70.1	70.1	76	62.2	0	0	---	0.00	30.037 
23:30	69.8	69.8	69.8	77	62.3	0	0	---	0.00	30.029 
23:35	69.4	69.4	69.4	77	61.9	0	0	---	0.00	30.029 
23:40	69.3	69.3	69.3	78	62.1	0	0	---	0.00	30.029 
23:45	69.1	69.1	69.1	78	61.9	0	0	---	0.00	30.031 
23:50	68.9	68.9	68.9	79	62.1	0	0	---	0.00	30.031 
23:55	68.8	68.8	68.8	79	62.0	0	0	---	0.00	30.031 

CoCoRaHS
IN-AL-39
A2 Web Hosting
Creative Commons License
GoDaddy
search engine by freefind advanced

loaded 2018-11-19 10:15:09 • last modified 2010-11-18 10:43:29
Privacy PolicyDisclaimer
• wx.awcolley.com is powered by PmWiki v.2002016 •
• all content (unless otherwise noted) © 2018 A W Colley